Time;durP1;ratioP1;P1;durP2;ratioP2;P2;SDS_P1;SDS_P2;PMS_P1;PMS_P2;Temp;Humidity;BMP_temperature;BMP_pressure;BME280_temperature;BME280_humidity;BME280_pressure;Samples;Min_cycle;Max_cycle;Signal;HPM_P1;HPM_P2
2022/03/16 00:02:11;;;;;;;22.65;17.80;;;8.60;99.90;;;;;;1813284;77;21508;-75
2022/03/16 00:04:38;;;;;;;21.33;18.52;;;8.60;99.90;;;;;;1893304;74;21048;-76
2022/03/16 00:07:06;;;;;;;20.25;17.23;;;8.70;99.90;;;;;;1896317;74;21133;-76
2022/03/16 00:09:33;;;;;;;23.22;18.52;;;8.70;99.90;;;;;;1899547;74;21461;-75
2022/03/16 00:12:00;;;;;;;23.47;18.55;;;8.60;99.90;;;;;;1900083;75;21079;-75
2022/03/16 00:14:28;;;;;;;29.65;20.27;;;8.60;99.90;;;;;;1905549;74;21145;-76
2022/03/16 00:16:55;;;;;;;21.48;19.07;;;8.50;99.90;;;;;;1896602;74;21157;-76
2022/03/16 00:19:24;;;;;;;24.30;19.98;;;8.60;99.90;;;;;;1901169;74;21091;-76
2022/03/16 00:21:51;;;;;;;24.65;20.32;;;8.60;99.90;;;;;;1896840;74;21603;-75
2022/03/16 00:24:19;;;;;;;24.82;19.23;;;8.60;99.90;;;;;;1896596;74;21119;-75
2022/03/16 00:26:46;;;;;;;22.95;18.90;;;8.60;99.90;;;;;;1897322;74;21340;-76
2022/03/16 00:29:13;;;;;;;28.47;20.65;;;8.60;99.90;;;;;;1898710;75;21084;-76
2022/03/16 00:31:40;;;;;;;25.35;20.62;;;8.60;99.90;;;;;;1909965;74;21071;-76
2022/03/16 00:34:08;;;;;;;30.10;22.42;;;8.50;99.90;;;;;;1899437;74;21192;-76
2022/03/16 00:36:35;;;;;;;29.45;21.60;;;8.50;99.90;;;;;;1898653;75;21045;-76
2022/03/16 00:39:04;;;;;;;24.60;21.93;;;8.40;99.90;;;;;;1899570;75;21164;-76
2022/03/16 00:41:34;;;;;;;36.63;25.35;;;8.50;99.90;;;;;;1892581;74;21158;-75
2022/03/16 00:44:02;;;;;;;29.92;23.32;;;8.50;99.90;;;;;;1899633;74;21090;-75
2022/03/16 00:46:29;;;;;;;29.40;24.15;;;8.50;99.90;;;;;;1904793;74;21164;-74
2022/03/16 00:48:57;;;;;;;28.62;23.02;;;8.50;99.90;;;;;;1893171;74;21049;-74
2022/03/16 00:51:24;;;;;;;28.98;22.90;;;8.60;99.90;;;;;;1900053;74;21143;-76
2022/03/16 00:53:51;;;;;;;28.87;24.12;;;8.60;99.90;;;;;;1890042;74;21214;-75
2022/03/16 00:56:19;;;;;;;32.95;25.10;;;8.60;99.90;;;;;;1896922;75;21053;-74
2022/03/16 00:58:46;;;;;;;32.35;25.12;;;8.60;99.90;;;;;;1894789;74;21091;-75
2022/03/16 01:01:13;;;;;;;38.17;26.55;;;8.60;99.90;;;;;;1894462;74;21083;-74
2022/03/16 01:03:42;;;;;;;36.40;25.68;;;8.60;99.90;;;;;;1904317;74;21075;-75
2022/03/16 01:06:15;;;;;;;39.08;27.17;;;8.50;99.90;;;;;;1882731;75;21130;-76
2022/03/16 01:08:44;;;;;;;39.40;28.83;;;8.50;99.90;;;;;;1812374;77;21181;-75
2022/03/16 01:11:12;;;;;;;41.20;28.75;;;8.30;99.90;;;;;;1896957;74;21219;-76
2022/03/16 01:13:41;;;;;;;35.50;26.37;;;8.40;99.90;;;;;;1894627;74;21087;-76
2022/03/16 01:16:09;;;;;;;39.23;29.50;;;8.50;99.90;;;;;;1899559;74;21075;-76
2022/03/16 01:18:36;;;;;;;35.40;27.20;;;8.40;99.90;;;;;;1901823;74;21460;-76
2022/03/16 01:21:07;;;;;;;40.67;28.38;;;8.40;99.90;;;;;;1901597;74;21157;-76
2022/03/16 01:23:35;;;;;;;37.33;27.77;;;8.50;99.90;;;;;;1860012;75;21166;-76
2022/03/16 01:26:05;;;;;;;45.67;29.65;;;8.50;99.90;;;;;;1895708;74;21159;-76
2022/03/16 01:28:33;;;;;;;37.10;28.90;;;8.50;99.90;;;;;;1899014;74;21621;-76
2022/03/16 01:31:01;;;;;;;39.58;30.55;;;8.50;99.90;;;;;;1896533;74;21564;-76
2022/03/16 01:33:29;;;;;;;44.80;31.40;;;8.40;99.90;;;;;;1893646;74;21083;-76
2022/03/16 01:35:58;;;;;;;49.48;31.57;;;8.50;99.90;;;;;;1893932;74;21088;-76
2022/03/16 01:38:25;;;;;;;44.70;31.35;;;8.40;99.90;;;;;;1878903;74;21071;-76
2022/03/16 01:40:52;;;;;;;47.98;29.77;;;8.40;99.90;;;;;;1898884;74;21214;-75
2022/03/16 01:43:24;;;;;;;39.27;29.40;;;8.40;99.90;;;;;;1899990;74;21181;-75
2022/03/16 01:45:51;;;;;;;43.13;29.87;;;8.40;99.90;;;;;;1896252;74;21072;-75
2022/03/16 01:48:19;;;;;;;40.33;30.12;;;8.40;99.90;;;;;;1896919;74;21044;-75
2022/03/16 01:50:48;;;;;;;36.88;28.65;;;8.40;99.90;;;;;;1893343;75;21131;-75
2022/03/16 01:53:16;;;;;;;40.43;30.45;;;8.50;99.90;;;;;;1899282;75;21206;-74
2022/03/16 01:55:43;;;;;;;44.63;29.85;;;8.50;99.90;;;;;;1894400;74;21079;-74
2022/03/16 01:58:12;;;;;;;52.85;29.15;;;8.50;99.90;;;;;;1896178;74;21080;-75
2022/03/16 02:00:40;;;;;;;44.55;29.77;;;8.50;99.90;;;;;;1885545;74;21092;-75
2022/03/16 02:03:08;;;;;;;44.75;30.23;;;8.50;99.90;;;;;;1894759;74;21451;-76
2022/03/16 02:05:37;;;;;;;42.17;30.20;;;8.50;99.90;;;;;;1874452;74;21146;-76
2022/03/16 02:08:05;;;;;;;44.18;30.62;;;8.50;99.90;;;;;;1906137;74;21084;-76
2022/03/16 02:10:33;;;;;;;42.58;30.35;;;8.50;99.90;;;;;;1906648;74;21079;-76
2022/03/16 02:13:00;;;;;;;40.03;30.15;;;8.30;99.90;;;;;;1902687;74;21209;-75
2022/03/16 02:15:27;;;;;;;45.17;31.40;;;8.30;99.90;;;;;;1902004;74;21471;-75
2022/03/16 02:17:57;;;;;;;41.13;31.30;;;8.30;99.90;;;;;;1909758;74;21075;-76
2022/03/16 02:20:27;;;;;;;41.20;30.12;;;8.30;99.90;;;;;;1906889;75;21150;-76
2022/03/16 02:23:01;;;;;;;43.65;30.82;;;8.40;99.90;;;;;;1895760;74;21076;-76
2022/03/16 02:25:29;;;;;;;37.53;29.35;;;8.40;99.90;;;;;;1903670;74;21119;-76
2022/03/16 02:27:57;;;;;;;40.55;29.12;;;8.40;99.90;;;;;;1904710;74;21147;-76
2022/03/16 02:30:28;;;;;;;41.42;31.23;;;8.50;99.90;;;;;;1909088;74;21079;-76
2022/03/16 02:32:55;;;;;;;52.50;32.08;;;8.40;99.90;;;;;;1895668;74;21032;-76
2022/03/16 02:35:25;;;;;;;47.58;30.25;;;8.50;99.90;;;;;;1902525;74;21072;-76
2022/03/16 02:37:52;;;;;;;43.57;31.23;;;8.60;99.90;;;;;;1894801;74;21096;-76
2022/03/16 02:40:20;;;;;;;44.58;30.37;;;8.50;99.90;;;;;;1899786;74;21080;-76
2022/03/16 02:42:49;;;;;;;42.55;29.12;;;8.50;99.90;;;;;;1898541;74;21120;-76
2022/03/16 02:45:16;;;;;;;40.63;29.60;;;8.50;99.90;;;;;;1900367;74;21080;-76
2022/03/16 02:47:44;;;;;;;40.83;30.10;;;8.50;99.90;;;;;;1895084;74;21053;-76
2022/03/16 02:50:12;;;;;;;41.28;28.85;;;8.50;99.90;;;;;;1904992;75;21459;-76
2022/03/16 02:52:40;;;;;;;49.15;31.35;;;8.50;99.90;;;;;;1816716;77;21064;-76
2022/03/16 02:55:08;;;;;;;40.78;30.12;;;8.50;99.90;;;;;;1814483;77;21154;-76
2022/03/16 02:57:35;;;;;;;49.60;30.60;;;8.50;99.90;;;;;;1810807;78;21496;-75
2022/03/16 03:00:07;;;;;;;42.78;30.23;;;8.40;99.90;;;;;;1780226;79;21162;-75
2022/03/16 03:02:34;;;;;;;37.78;27.80;;;8.40;99.90;;;;;;1813043;78;21138;-76
2022/03/16 03:05:01;;;;;;;45.08;30.17;;;8.50;99.90;;;;;;1814070;77;21160;-75
2022/03/16 03:07:32;;;;;;;40.67;30.10;;;8.40;99.90;;;;;;1838193;76;21080;-75
2022/03/16 03:10:00;;;;;;;46.42;31.70;;;8.50;99.90;;;;;;1895510;74;21246;-76
2022/03/16 03:12:27;;;;;;;46.08;32.55;;;8.50;99.90;;;;;;1900550;74;21083;-75
2022/03/16 03:14:54;;;;;;;43.55;32.65;;;8.50;99.90;;;;;;1895737;74;21037;-75
2022/03/16 03:17:24;;;;;;;44.95;29.30;;;8.50;99.90;;;;;;1892580;75;21137;-77
2022/03/16 03:19:51;;;;;;;45.05;31.00;;;8.60;99.90;;;;;;1904611;74;21120;-76
2022/03/16 03:22:18;;;;;;;46.63;32.15;;;8.60;99.90;;;;;;1898003;74;21205;-76
2022/03/16 03:24:47;;;;;;;44.80;31.30;;;8.60;99.90;;;;;;1894749;74;21070;-76
2022/03/16 03:27:14;;;;;;;45.90;32.15;;;8.60;99.90;;;;;;1898869;74;21076;-76
2022/03/16 03:29:41;;;;;;;44.67;31.77;;;8.50;99.90;;;;;;1896180;74;21159;-76
2022/03/16 03:32:08;;;;;;;49.67;33.95;;;8.50;99.90;;;;;;1906151;74;21137;-75
2022/03/16 03:34:36;;;;;;;40.73;30.52;;;8.50;99.90;;;;;;1901176;74;21204;-75
2022/03/16 03:37:03;;;;;;;48.95;31.57;;;8.50;99.90;;;;;;1899382;74;21068;-75
2022/03/16 03:39:30;;;;;;;43.73;32.53;;;8.40;99.90;;;;;;1903405;74;21452;-75
2022/03/16 03:41:58;;;;;;;47.65;33.63;;;8.30;99.90;;;;;;1905068;74;21071;-75
2022/03/16 03:44:25;;;;;;;44.80;32.93;;;8.40;99.90;;;;;;1910322;75;21121;-75
2022/03/16 03:49:34;;;;;;;49.65;33.58;;;8.40;99.90;;;;;;2036508;69;27907;-77
2022/03/16 03:52:02;;;;;;;49.42;32.42;;;8.50;99.90;;;;;;2003487;70;21423;-76
2022/03/16 03:54:29;;;;;;;49.90;32.98;;;8.50;99.90;;;;;;2011632;70;21012;-77
2022/03/16 03:56:56;;;;;;;50.33;33.35;;;8.50;99.90;;;;;;2008065;70;21117;-77
2022/03/16 03:59:24;;;;;;;45.83;32.53;;;8.50;99.90;;;;;;1984754;71;21461;-76
2022/03/16 04:01:53;;;;;;;50.30;34.80;;;8.50;99.90;;;;;;2008084;70;21047;-77
2022/03/16 04:04:20;;;;;;;46.73;32.58;;;8.30;99.90;;;;;;2008398;70;21144;-76
2022/03/16 04:06:48;;;;;;;57.73;35.88;;;8.40;99.90;;;;;;2008018;70;21037;-76
2022/03/16 04:09:15;;;;;;;55.92;35.88;;;8.40;99.90;;;;;;2026483;71;21355;-77
2022/03/16 04:11:42;;;;;;;51.13;34.15;;;8.30;99.90;;;;;;2020733;70;21040;-77
2022/03/16 04:14:11;;;;;;;48.38;35.55;;;8.30;99.90;;;;;;2010331;70;21090;-77
2022/03/16 04:16:38;;;;;;;49.18;34.53;;;8.40;99.90;;;;;;2011455;70;21042;-77
2022/03/16 04:19:06;;;;;;;53.42;33.63;;;8.40;99.90;;;;;;1971831;71;21085;-76
2022/03/16 04:21:33;;;;;;;42.93;31.62;;;8.50;99.90;;;;;;2006911;70;21103;-77
2022/03/16 04:24:02;;;;;;;46.35;33.35;;;8.50;99.90;;;;;;2008312;70;21032;-77
2022/03/16 04:26:29;;;;;;;48.40;32.45;;;8.50;99.90;;;;;;2021467;70;21051;-77
2022/03/16 04:28:59;;;;;;;43.58;31.15;;;8.50;99.90;;;;;;2013015;70;21050;-77
2022/03/16 04:31:27;;;;;;;49.20;32.48;;;8.50;99.90;;;;;;2011143;70;21412;-77
2022/03/16 04:33:55;;;;;;;47.17;33.42;;;8.50;99.90;;;;;;2014892;70;21031;-76
2022/03/16 04:36:22;;;;;;;47.85;32.50;;;8.50;99.90;;;;;;2008975;68;21150;-73
2022/03/16 04:38:50;;;;;;;54.25;33.80;;;8.40;99.90;;;;;;2017185;71;21005;-75
2022/03/16 04:41:19;;;;;;;49.90;33.67;;;8.40;99.90;;;;;;2014404;71;21011;-75
2022/03/16 04:43:46;;;;;;;50.12;35.05;;;8.40;99.90;;;;;;2006429;70;21036;-76
2022/03/16 04:46:15;;;;;;;52.08;33.10;;;8.30;99.90;;;;;;2024138;70;21137;-75
2022/03/16 04:48:43;;;;;;;46.30;32.48;;;8.30;99.90;;;;;;2006867;70;21115;-75
2022/03/16 04:51:11;;;;;;;50.35;32.80;;;8.40;99.90;;;;;;2009859;70;21104;-74
2022/03/16 04:53:38;;;;;;;50.05;33.33;;;8.40;99.90;;;;;;2011158;70;21113;-76
2022/03/16 04:56:05;;;;;;;55.98;35.08;;;8.50;99.90;;;;;;2006807;70;21153;-75
2022/03/16 04:58:33;;;;;;;49.20;31.30;;;8.60;99.90;;;;;;2010305;71;21078;-76
2022/03/16 05:01:00;;;;;;;45.50;32.55;;;8.50;99.90;;;;;;2006507;70;21043;-75
2022/03/16 05:03:27;;;;;;;42.15;30.37;;;8.50;99.90;;;;;;2009608;70;21034;-74
2022/03/16 05:05:55;;;;;;;46.58;31.02;;;8.50;99.90;;;;;;2008803;70;21068;-76
2022/03/16 05:08:22;;;;;;;47.03;32.10;;;8.50;99.90;;;;;;2009779;70;21044;-75
2022/03/16 05:10:49;;;;;;;43.83;31.05;;;8.50;99.90;;;;;;2008157;70;21404;-76
2022/03/16 05:13:17;;;;;;;45.35;32.48;;;8.40;99.90;;;;;;2010960;70;21096;-76
2022/03/16 05:15:44;;;;;;;47.95;32.48;;;8.40;99.90;;;;;;2007735;70;21022;-75
2022/03/16 05:18:11;;;;;;;45.35;31.37;;;8.40;99.90;;;;;;2004110;70;21424;-75
2022/03/16 05:20:39;;;;;;;42.50;30.55;;;8.30;99.90;;;;;;2009744;71;21069;-75
2022/03/16 05:23:06;;;;;;;44.38;32.42;;;8.30;99.90;;;;;;2003161;70;21391;-76
2022/03/16 05:25:33;;;;;;;46.42;30.75;;;8.40;99.90;;;;;;2007497;70;21044;-75
2022/03/16 05:28:01;;;;;;;45.30;31.42;;;8.50;99.90;;;;;;2002399;70;21513;-75
2022/03/16 05:30:28;;;;;;;43.98;30.00;;;8.50;99.90;;;;;;2010983;71;21436;-76
2022/03/16 05:33:00;;;;;;;41.40;30.52;;;8.50;99.90;;;;;;2009282;70;21039;-76
2022/03/16 05:35:27;;;;;;;52.62;32.80;;;8.50;99.90;;;;;;2008580;70;21435;-77
2022/03/16 05:37:56;;;;;;;45.88;32.13;;;8.40;99.90;;;;;;2006739;70;21043;-77
2022/03/16 05:40:23;;;;;;;53.35;34.05;;;8.30;99.90;;;;;;2009839;71;21086;-76
2022/03/16 05:42:50;;;;;;;48.60;32.00;;;8.30;99.90;;;;;;2009692;71;21088;-76
2022/03/16 05:45:18;;;;;;;49.13;32.83;;;8.40;99.90;;;;;;2006497;70;21129;-76
2022/03/16 05:47:45;;;;;;;45.67;32.08;;;8.40;99.90;;;;;;2014352;70;21110;-76
2022/03/16 05:50:14;;;;;;;45.75;31.77;;;8.50;99.90;;;;;;2024203;71;21093;-76
2022/03/16 05:52:43;;;;;;;48.85;32.42;;;8.50;99.90;;;;;;2011013;71;21117;-76
2022/03/16 05:55:13;;;;;;;54.18;32.70;;;8.60;99.90;;;;;;2006291;70;21116;-77
2022/03/16 05:57:43;;;;;;;57.05;33.75;;;8.60;99.90;;;;;;2008447;70;21079;-76
2022/03/16 06:00:14;;;;;;;46.50;31.77;;;8.60;99.90;;;;;;2009426;71;21101;-75
2022/03/16 06:02:39;;;;;;;51.10;31.82;;;8.60;99.90;;;;;;2008666;70;21069;-76
2022/03/16 06:05:07;;;;;;;49.75;32.90;;;8.60;99.90;;;;;;2008970;70;21579;-76
2022/03/16 06:07:34;;;;;;;54.00;33.78;;;8.50;99.90;;;;;;2009622;71;21427;-76
2022/03/16 06:10:02;;;;;;;44.95;32.65;;;8.60;99.90;;;;;;2009554;70;21175;-76
2022/03/16 06:12:29;;;;;;;55.25;32.80;;;8.70;99.90;;;;;;2006075;70;21427;-76
2022/03/16 06:14:56;;;;;;;52.48;33.23;;;8.60;99.90;;;;;;2005709;70;21042;-77
2022/03/16 06:17:24;;;;;;;50.52;32.28;;;8.60;99.90;;;;;;2009590;70;21040;-75
2022/03/16 06:19:51;;;;;;;60.73;33.28;;;8.60;99.90;;;;;;2009598;70;21222;-75
2022/03/16 06:22:18;;;;;;;50.17;31.50;;;8.70;99.90;;;;;;2007800;70;21101;-75
2022/03/16 06:24:45;;;;;;;51.00;33.23;;;8.70;99.90;;;;;;2004537;70;21247;-75
2022/03/16 06:27:13;;;;;;;53.58;31.97;;;8.70;99.90;;;;;;2005946;70;21026;-76
2022/03/16 06:29:40;;;;;;;55.12;34.08;;;8.70;99.90;;;;;;2012472;70;21124;-76
2022/03/16 06:32:08;;;;;;;54.40;31.73;;;8.60;99.90;;;;;;2006456;70;21044;-75
2022/03/16 06:34:35;;;;;;;50.50;31.80;;;8.60;99.90;;;;;;2005782;70;21141;-76
2022/03/16 06:37:03;;;;;;;49.33;32.15;;;8.70;99.90;;;;;;2009564;70;21101;-76
2022/03/16 06:39:30;;;;;;;48.98;31.65;;;8.70;99.90;;;;;;2013340;71;21400;-77
2022/03/16 06:41:57;;;;;;;49.60;29.85;;;8.70;99.90;;;;;;2000722;70;21175;-80
2022/03/16 06:44:25;;;;;;;44.65;29.80;;;8.70;99.90;;;;;;2006741;70;21443;-78
2022/03/16 06:46:52;;;;;;;54.15;31.42;;;8.80;99.90;;;;;;2016622;71;21089;-80
2022/03/16 06:49:19;;;;;;;49.85;30.55;;;8.60;99.90;;;;;;2005970;70;21035;-79
2022/03/16 06:51:47;;;;;;;47.78;28.73;;;8.70;99.90;;;;;;2006689;70;21423;-78
2022/03/16 06:54:14;;;;;;;40.23;28.05;;;8.70;99.90;;;;;;2009810;70;21056;-79
2022/03/16 06:56:41;;;;;;;42.70;27.15;;;8.70;99.90;;;;;;2003943;70;21036;-78
2022/03/16 06:59:09;;;;;;;42.55;28.62;;;8.70;99.90;;;;;;2009673;71;21379;-77
2022/03/16 07:01:37;;;;;;;40.38;27.27;;;8.60;99.90;;;;;;2009695;71;21036;-77
2022/03/16 07:04:06;;;;;;;39.23;27.95;;;8.60;99.90;;;;;;2002229;70;21431;-78
2022/03/16 07:06:33;;;;;;;41.92;29.77;;;8.80;99.90;;;;;;2009545;70;20999;-79
2022/03/16 07:09:02;;;;;;;51.55;28.23;;;8.80;99.90;;;;;;2005584;70;21126;-79
2022/03/16 07:11:30;;;;;;;45.48;26.93;;;8.80;99.90;;;;;;2009525;70;21129;-79
2022/03/16 07:16:42;;;;;;;43.92;27.45;;;8.60;99.90;;;;;;2009645;71;21405;-79
2022/03/16 07:19:09;;;;;;;37.42;26.23;;;8.80;99.90;;;;;;2009452;71;21102;-79
2022/03/16 07:21:38;;;;;;;39.15;25.85;;;8.90;99.90;;;;;;2011671;70;21424;-79
2022/03/16 07:24:06;;;;;;;39.20;26.75;;;8.80;99.90;;;;;;2007019;71;21092;-77
2022/03/16 07:26:33;;;;;;;34.25;24.92;;;8.80;99.90;;;;;;1999367;70;21042;-78
2022/03/16 07:29:01;;;;;;;39.05;25.25;;;9.00;99.90;;;;;;2010858;70;21479;-78
2022/03/16 07:31:28;;;;;;;37.48;25.37;;;9.10;99.90;;;;;;2026149;71;21065;-79
2022/03/16 07:33:55;;;;;;;39.23;25.90;;;9.20;99.90;;;;;;2009445;70;21031;-76
2022/03/16 07:36:23;;;;;;;43.63;26.25;;;9.10;99.90;;;;;;2008359;70;21043;-75
2022/03/16 07:38:50;;;;;;;38.88;25.50;;;9.20;99.90;;;;;;2006602;70;21036;-76
2022/03/16 07:41:17;;;;;;;43.42;25.60;;;9.20;99.90;;;;;;2005732;70;21044;-76
2022/03/16 07:43:45;;;;;;;35.35;24.63;;;9.10;99.90;;;;;;2002157;70;21043;-76
2022/03/16 07:46:12;;;;;;;38.50;25.08;;;9.20;99.90;;;;;;2009477;70;21034;-76
2022/03/16 07:48:48;;;;;;;33.75;25.12;;;9.10;99.90;;;;;;2009441;71;21074;-79
2022/03/16 07:51:15;;;;;;;35.28;23.35;;;9.00;99.90;;;;;;2008127;70;21080;-78
2022/03/16 07:53:42;;;;;;;35.25;25.27;;;9.20;99.90;;;;;;2012442;70;21147;-77
2022/03/16 07:56:09;;;;;;;29.98;23.35;;;9.20;99.90;;;;;;2003221;70;21024;-77
2022/03/16 07:58:38;;;;;;;34.33;24.05;;;9.20;99.90;;;;;;2009375;70;21552;-77
2022/03/16 08:01:06;;;;;;;36.30;23.05;;;9.20;99.90;;;;;;2012683;70;21496;-77
2022/03/16 08:03:34;;;;;;;37.70;23.18;;;9.20;99.90;;;;;;2015517;70;21482;-78
2022/03/16 08:06:03;;;;;;;32.63;23.25;;;9.20;99.90;;;;;;2005494;70;21497;-77
2022/03/16 08:08:31;;;;;;;34.53;23.20;;;9.10;99.90;;;;;;2004054;70;21436;-77
2022/03/16 08:11:00;;;;;;;38.30;24.52;;;9.10;99.90;;;;;;2007622;71;21514;-76
2022/03/16 08:13:27;;;;;;;32.45;23.42;;;9.00;99.90;;;;;;2008306;70;21487;-77
2022/03/16 08:15:54;;;;;;;34.40;24.35;;;9.10;99.90;;;;;;2007186;70;21130;-77
2022/03/16 08:18:21;;;;;;;50.92;24.05;;;9.10;99.90;;;;;;2010461;70;21442;-77
2022/03/16 08:20:49;;;;;;;34.15;24.85;;;8.80;99.90;;;;;;2011250;70;21043;-77
2022/03/16 08:23:22;;;;;;;37.53;24.50;;;8.90;99.90;;;;;;2006194;70;21060;-77
2022/03/16 08:25:49;;;;;;;39.38;25.57;;;8.90;99.90;;;;;;2009781;71;21016;-80
2022/03/16 08:28:17;;;;;;;38.15;24.77;;;8.80;99.90;;;;;;2009822;71;21181;-79
2022/03/16 08:30:45;;;;;;;36.25;23.45;;;9.00;99.90;;;;;;2003057;70;21438;-76
2022/03/16 08:33:12;;;;;;;34.00;23.92;;;9.00;99.90;;;;;;2022006;71;21392;-76
2022/03/16 08:35:39;;;;;;;37.17;25.40;;;9.00;99.90;;;;;;2010176;70;21051;-76
2022/03/16 08:38:06;;;;;;;36.95;24.40;;;9.00;99.90;;;;;;2004320;70;21926;-78
2022/03/16 08:40:34;;;;;;;32.63;24.07;;;9.10;99.90;;;;;;2026159;70;21057;-77
2022/03/16 08:43:01;;;;;;;36.95;24.67;;;9.20;99.90;;;;;;2006067;70;21101;-78
2022/03/16 08:45:28;;;;;;;40.20;24.00;;;9.40;99.90;;;;;;2002900;70;21035;-78
2022/03/16 08:47:56;;;;;;;34.18;22.58;;;9.40;99.90;;;;;;2006586;70;21458;-78
2022/03/16 08:50:25;;;;;;;33.23;23.60;;;9.50;99.90;;;;;;2008749;70;21024;-78
2022/03/16 08:52:53;;;;;;;34.73;23.83;;;9.40;99.90;;;;;;2006313;70;21127;-77
2022/03/16 08:55:20;;;;;;;32.95;23.83;;;9.30;99.90;;;;;;2003755;70;21112;-78
2022/03/16 08:57:47;;;;;;;38.42;24.37;;;9.20;99.90;;;;;;2020873;70;21119;-78
2022/03/16 09:00:15;;;;;;;41.08;23.57;;;9.20;99.90;;;;;;2007420;70;21048;-78
2022/03/16 09:02:43;;;;;;;34.70;23.20;;;9.50;99.90;;;;;;2006142;70;21432;-78
2022/03/16 09:05:12;;;;;;;34.60;22.75;;;9.40;99.90;;;;;;2011969;71;21047;-77
2022/03/16 09:10:22;;;;;;;38.85;23.90;;;9.50;99.90;;;;;;2054670;69;27835;-79
2022/03/16 09:12:50;;;;;;;34.80;22.10;;;9.60;99.90;;;;;;2001478;70;21186;-78
2022/03/16 09:15:19;;;;;;;31.77;22.15;;;9.60;99.90;;;;;;2009135;70;21545;-76
2022/03/16 09:17:46;;;;;;;35.97;23.47;;;9.60;99.90;;;;;;2013593;70;21378;-76
2022/03/16 09:20:14;;;;;;;29.55;21.10;;;9.60;99.90;;;;;;2009443;70;21255;-76
2022/03/16 09:22:41;;;;;;;38.38;22.50;;;9.60;99.90;;;;;;2004386;70;21101;-77
2022/03/16 09:25:09;;;;;;;43.33;21.73;;;9.70;99.90;;;;;;2012468;70;21020;-78
2022/03/16 09:27:36;;;;;;;43.10;21.80;;;9.80;99.90;;;;;;2010340;71;21491;-77
2022/03/16 09:30:05;;;;;;;28.95;20.20;;;9.80;99.90;;;;;;2010443;71;21044;-76
2022/03/16 09:32:33;;;;;;;27.98;20.57;;;9.90;99.90;;;;;;2006912;70;21034;-75
2022/03/16 09:35:01;;;;;;;30.60;20.00;;;9.80;99.90;;;;;;2010576;71;21181;-76
2022/03/16 09:37:28;;;;;;;32.78;20.15;;;10.10;99.90;;;;;;2010741;71;21040;-77
2022/03/16 09:39:56;;;;;;;31.20;20.27;;;10.00;99.90;;;;;;2005983;70;21044;-76
2022/03/16 09:42:24;;;;;;;32.67;20.35;;;9.80;99.90;;;;;;2001223;70;21115;-75
2022/03/16 09:44:53;;;;;;;30.68;19.15;;;9.80;99.90;;;;;;2006035;70;21064;-74
2022/03/16 09:47:22;;;;;;;30.27;19.62;;;9.90;99.90;;;;;;2010596;71;21130;-75
2022/03/16 09:49:51;;;;;;;27.70;19.57;;;9.80;99.90;;;;;;2012981;70;21054;-75
2022/03/16 09:52:19;;;;;;;24.37;18.98;;;10.10;99.90;;;;;;2007999;71;21093;-77
2022/03/16 09:54:48;;;;;;;24.30;18.17;;;10.20;99.90;;;;;;2007139;70;21140;-77
2022/03/16 09:57:15;;;;;;;27.07;18.65;;;10.10;99.90;;;;;;2007906;70;21077;-77
2022/03/16 10:00:02;;;;;;;26.05;17.85;;;10.30;99.90;;;;;;2006590;70;21104;-79
2022/03/16 10:02:31;;;;;;;24.00;18.02;;;10.10;99.90;;;;;;1884521;75;21085;-77
2022/03/16 10:04:58;;;;;;;23.47;18.50;;;9.90;99.90;;;;;;1904736;74;21052;-76
2022/03/16 10:07:29;;;;;;;27.58;18.45;;;9.90;99.90;;;;;;1906376;75;21213;-77
2022/03/16 10:15:28;;;;;;;46.70;18.42;;;10.00;99.90;;;;;;1908127;75;21239;-78
2022/03/16 10:18:00;;;;;;;29.65;17.57;;;10.30;99.90;;;;;;1901942;73;21101;-77
2022/03/16 10:20:32;;;;;;;23.92;17.35;;;10.20;99.90;;;;;;1880727;73;21066;-77
2022/03/16 10:23:06;;;;;;;21.90;16.10;;;10.10;99.90;;;;;;1897737;75;21031;-76
2022/03/16 10:25:38;;;;;;;23.60;17.48;;;10.20;99.90;;;;;;1911664;74;21177;-78
2022/03/16 10:28:14;;;;;;;32.13;18.10;;;10.30;99.90;;;;;;1911008;75;21071;-78
2022/03/16 10:30:45;;;;;;;26.17;17.20;;;10.50;99.90;;;;;;1913269;74;21140;-77
2022/03/16 10:33:16;;;;;;;19.20;16.50;;;10.80;99.90;;;;;;1865532;75;21218;-78
2022/03/16 10:35:58;;;;;;;20.27;16.02;;;10.80;99.90;;;;;;1898134;75;21086;-77
2022/03/16 10:38:26;;;;;;;20.88;16.82;;;10.80;99.90;;;;;;1911715;75;21175;-77
2022/03/16 10:40:56;;;;;;;21.07;16.37;;;11.00;99.90;;;;;;1911480;75;21113;-77
2022/03/16 10:49:02;;;;;;;28.32;17.70;;;11.30;99.90;;;;;;1911605;74;21079;-79
2022/03/16 10:51:30;;;;;;;25.65;16.02;;;11.40;99.90;;;;;;1912018;75;21054;-79
2022/03/16 10:54:00;;;;;;;19.00;15.75;;;11.70;99.90;;;;;;1911510;75;21116;-78
2022/03/16 10:56:30;;;;;;;21.48;16.52;;;11.70;99.90;;;;;;1897608;74;21588;-78
2022/03/16 10:58:59;;;;;;;20.50;15.78;;;11.80;99.90;;;;;;1887114;74;21090;-76
2022/03/16 11:01:27;;;;;;;21.57;16.17;;;11.80;99.90;;;;;;1903063;75;21071;-78
2022/03/16 11:03:58;;;;;;;22.58;15.30;;;12.20;99.90;;;;;;1911493;75;21073;-78
2022/03/16 11:06:25;;;;;;;19.10;14.55;;;12.60;99.90;;;;;;1877458;75;21121;-76
2022/03/16 11:08:55;;;;;;;21.68;14.93;;;12.80;99.90;;;;;;1911971;75;21070;-76
2022/03/16 11:14:08;;;;;;;19.57;14.35;;;13.40;99.90;;;;;;1897484;74;21074;-77
2022/03/16 11:16:35;;;;;;;24.55;14.68;;;13.10;99.90;;;;;;1899603;75;21082;-78
2022/03/16 11:19:06;;;;;;;18.73;15.15;;;13.00;99.90;;;;;;1897866;74;21458;-79
2022/03/16 11:21:46;;;;;;;;;;;12.90;99.90;;;;;;1892712;75;21120;-75
2022/03/16 11:24:19;;;;;;;22.42;14.20;;;12.90;99.90;;;;;;1867448;74;20126;-78
2022/03/16 11:27:00;;;;;;;17.48;15.08;;;13.30;99.90;;;;;;1912768;73;21136;-80
2022/03/16 11:29:39;;;;;;;18.32;14.45;;;13.40;99.90;;;;;;1878058;75;21086;-76
2022/03/16 11:32:17;;;;;;;17.45;13.95;;;13.60;99.90;;;;;;1912035;74;21047;-76
2022/03/16 11:34:56;;;;;;;17.65;13.03;;;14.00;99.90;;;;;;1889282;74;21093;-76
2022/03/16 11:37:34;;;;;;;19.25;13.50;;;14.20;99.90;;;;;;1894841;75;21186;-77
2022/03/16 11:40:13;;;;;;;18.40;13.90;;;14.10;99.90;;;;;;1879529;75;21179;-78
2022/03/16 11:42:46;;;;;;;18.98;14.80;;;13.90;99.90;;;;;;1883941;75;21152;-78
2022/03/16 11:45:41;;;;;;;20.40;14.95;;;13.30;99.90;;;;;;1881883;75;21069;-77
2022/03/16 11:51:18;;;;;;;18.17;13.75;;;13.50;99.90;;;;;;1899466;74;21055;-78
2022/03/16 11:54:05;;;;;;;18.10;13.72;;;13.60;99.90;;;;;;1909130;75;21145;-77
2022/03/16 11:56:44;;;;;;;15.30;13.62;;;13.40;99.90;;;;;;1855345;76;21085;-77
2022/03/16 11:59:23;;;;;;;18.67;14.98;;;13.40;99.90;;;;;;1824427;76;21462;-76
2022/03/16 12:01:52;;;;;;;19.90;14.50;;;12.90;99.90;;;;;;1833044;76;21104;-77
2022/03/16 12:04:38;;;;;;;23.80;14.73;;;13.10;99.90;;;;;;1808957;76;21205;-82
2022/03/16 12:07:09;;;;;;;23.67;14.50;;;13.10;99.90;;;;;;1823596;77;21583;-83
2022/03/16 12:09:51;;;;;;;22.00;14.45;;;13.40;99.90;;;;;;1794962;79;21113;-78
2022/03/16 12:15:37;;;;;;;18.23;13.72;;;13.80;99.90;;;;;;1844897;78;21095;-75
2022/03/16 12:18:17;;;;;;;19.07;14.10;;;13.60;99.90;;;;;;1804465;79;21087;-77
2022/03/16 12:20:46;;;;;;;22.77;14.63;;;13.70;99.90;;;;;;1840817;77;21141;-77
2022/03/16 12:23:18;;;;;;;20.05;13.75;;;13.60;99.90;;;;;;1798345;78;21100;-76
2022/03/16 12:25:50;;;;;;;20.15;13.13;;;13.30;99.90;;;;;;1823218;77;21159;-77
2022/03/16 12:34:30;;;;;;;13.80;12.35;;;13.30;99.90;;;;;;1824167;79;21497;-75
2022/03/16 12:36:58;;;;;;;14.85;12.90;;;13.20;99.90;;;;;;1826316;77;21137;-74
2022/03/16 12:39:27;;;;;;;24.85;13.43;;;13.20;99.90;;;;;;1810225;79;21397;-75
2022/03/16 12:44:45;;;;;;;18.52;14.30;;;12.90;99.90;;;;;;1805109;79;21897;-75
2022/03/16 12:47:25;;;;;;;20.80;13.93;;;12.80;99.90;;;;;;1832605;77;21172;-74
2022/03/16 12:49:52;;;;;;;23.77;13.60;;;13.00;99.90;;;;;;1813524;78;21118;-74
2022/03/16 12:52:20;;;;;;;26.95;12.90;;;13.10;99.90;;;;;;1812026;79;21079;-78
2022/03/16 12:54:47;;;;;;;20.60;13.55;;;13.10;99.90;;;;;;1839053;78;21465;-80
2022/03/16 12:57:16;;;;;;;19.07;12.68;;;13.20;99.90;;;;;;1823139;78;21128;-80
2022/03/16 12:59:48;;;;;;;17.20;12.55;;;13.10;99.90;;;;;;1838542;78;21542;-79
2022/03/16 13:02:17;;;;;;;17.23;11.85;;;12.90;99.90;;;;;;1824476;79;21448;-78
2022/03/16 13:04:44;;;;;;;14.58;11.97;;;13.10;99.90;;;;;;1825237;78;21429;-78
2022/03/16 13:07:13;;;;;;;17.23;12.53;;;13.20;99.90;;;;;;1821515;77;21089;-79
2022/03/16 13:09:40;;;;;;;13.50;11.78;;;13.10;99.90;;;;;;1842704;78;21085;-78
2022/03/16 13:12:12;;;;;;;15.50;12.00;;;13.40;99.90;;;;;;1815578;79;21356;-78
2022/03/16 13:14:44;;;;;;;15.83;12.33;;;13.40;99.90;;;;;;1818394;78;21070;-78
2022/03/16 13:17:13;;;;;;;16.65;12.80;;;13.60;99.90;;;;;;1825356;77;21539;-79
2022/03/16 13:19:44;;;;;;;18.35;13.15;;;13.70;99.90;;;;;;1838931;77;21506;-79
2022/03/16 13:22:16;;;;;;;17.10;12.90;;;13.40;99.90;;;;;;1826177;77;21139;-79